createdAt,value
2018-03-11T00:00:07.302Z,967.68
2018-03-11T00:01:07.223Z,967.65
2018-03-11T00:02:07.143Z,967.65
2018-03-11T00:03:07.063Z,967.65
2018-03-11T00:04:06.983Z,967.63
2018-03-11T00:05:06.902Z,967.64
2018-03-11T00:06:06.824Z,967.64
2018-03-11T00:07:06.740Z,967.68
2018-03-11T00:08:06.661Z,967.66
2018-03-11T00:09:06.580Z,967.64
2018-03-11T00:10:06.533Z,967.65
2018-03-11T00:11:06.436Z,967.63
2018-03-11T00:12:06.371Z,967.61
2018-03-11T00:13:06.259Z,967.61
2018-03-11T00:14:06.180Z,967.58
2018-03-11T00:15:06.102Z,967.56
2018-03-11T00:16:06.019Z,967.54
2018-03-11T00:17:05.938Z,967.52
2018-03-11T00:18:05.859Z,967.51
2018-03-11T00:19:05.780Z,967.50
2018-03-11T00:20:05.697Z,967.48
2018-03-11T00:21:05.617Z,967.51
2018-03-11T00:22:05.538Z,967.51
2018-03-11T00:23:05.458Z,967.53
2018-03-11T00:24:05.374Z,967.48
2018-03-11T00:25:05.298Z,967.46
2018-03-11T00:26:05.216Z,967.50
2018-03-11T00:27:05.138Z,967.52
2018-03-11T00:28:05.054Z,967.52
2018-03-11T00:29:04.974Z,967.48
2018-03-11T00:30:04.894Z,967.48
2018-03-11T00:31:04.815Z,967.43
2018-03-11T00:32:04.731Z,967.44
2018-03-11T00:33:04.659Z,967.41
2018-03-11T00:34:04.574Z,967.40
2018-03-11T00:35:04.492Z,967.42
2018-03-11T00:36:04.411Z,967.37
2018-03-11T00:37:04.336Z,967.38
2018-03-11T00:38:04.251Z,967.35
2018-03-11T00:39:04.168Z,967.37
2018-03-11T00:40:04.088Z,967.31
2018-03-11T00:41:04.010Z,967.34
2018-03-11T00:42:03.930Z,967.32
2018-03-11T00:43:03.848Z,967.27
2018-03-11T00:44:03.769Z,967.27
2018-03-11T00:45:03.686Z,967.26
2018-03-11T00:46:03.606Z,967.25
2018-03-11T00:47:03.524Z,967.25
2018-03-11T00:48:03.447Z,967.27
2018-03-11T00:49:03.365Z,967.25
2018-03-11T00:50:03.283Z,967.29
2018-03-11T00:51:03.204Z,967.23
2018-03-11T00:52:03.136Z,967.22
2018-03-11T00:53:03.041Z,967.21
2018-03-11T00:54:02.963Z,967.17
2018-03-11T00:55:02.881Z,967.10
2018-03-11T00:56:02.799Z,967.15
2018-03-11T00:57:02.720Z,967.06
2018-03-11T00:58:02.639Z,967.12
2018-03-11T00:59:02.560Z,967.11
2018-03-11T01:00:02.483Z,967.11
2018-03-11T01:01:02.402Z,967.11
2018-03-11T01:02:02.320Z,967.09
2018-03-11T01:03:02.242Z,967.08
2018-03-11T01:04:02.156Z,967.04
2018-03-11T01:05:02.101Z,967.06
2018-03-11T01:06:01.997Z,967.05
2018-03-11T01:07:01.917Z,967.05
2018-03-11T01:08:01.833Z,967.07
2018-03-11T01:09:01.758Z,967.04
2018-03-11T01:10:01.677Z,967.06
2018-03-11T01:11:01.592Z,967.01
2018-03-11T01:12:01.510Z,967.01
2018-03-11T01:13:01.430Z,966.99
2018-03-11T01:14:01.359Z,966.95
2018-03-11T01:15:01.307Z,966.94
2018-03-11T01:16:01.190Z,966.94
2018-03-11T01:17:01.112Z,966.91
2018-03-11T01:18:01.029Z,966.90
2018-03-11T01:19:00.948Z,966.90
2018-03-11T01:20:00.866Z,966.88
2018-03-11T01:21:00.787Z,966.85
2018-03-11T01:22:00.707Z,966.84
2018-03-11T01:23:00.624Z,966.86
2018-03-11T01:24:00.561Z,966.83
2018-03-11T01:25:00.462Z,966.84
2018-03-11T01:26:00.382Z,966.83
2018-03-11T01:27:00.300Z,966.80
2018-03-11T01:28:00.220Z,966.81
2018-03-11T01:29:00.141Z,966.81
2018-03-11T01:30:00.062Z,966.83
2018-03-11T01:30:59.979Z,966.77
2018-03-11T01:31:59.896Z,966.76
2018-03-11T01:32:59.820Z,966.77
2018-03-11T01:33:59.737Z,966.78
2018-03-11T01:34:59.662Z,966.74
2018-03-11T01:35:59.574Z,966.71
2018-03-11T01:36:59.495Z,966.68
2018-03-11T01:37:59.436Z,966.65
2018-03-11T01:38:59.335Z,966.68
2018-03-11T01:39:59.251Z,966.72
2018-03-11T01:40:59.170Z,966.66
2018-03-11T01:41:59.090Z,966.67
2018-03-11T01:42:59.010Z,966.65
2018-03-11T01:43:58.930Z,966.64
2018-03-11T01:44:58.848Z,966.61
2018-03-11T01:45:58.766Z,966.61
2018-03-11T01:46:58.688Z,966.61
2018-03-11T01:47:58.608Z,966.57
2018-03-11T01:48:58.526Z,966.52
2018-03-11T01:49:58.442Z,966.51
2018-03-11T01:50:58.365Z,966.47
2018-03-11T01:51:58.285Z,966.42
2018-03-11T01:52:58.207Z,966.44
2018-03-11T01:53:58.123Z,966.43
2018-03-11T01:54:58.043Z,966.43
2018-03-11T01:55:57.963Z,966.39
2018-03-11T01:56:57.882Z,966.38
2018-03-11T01:57:57.803Z,966.41
2018-03-11T01:58:57.723Z,966.39
2018-03-11T01:59:57.638Z,966.42
2018-03-11T02:00:57.557Z,966.45
2018-03-11T02:01:57.477Z,966.46
2018-03-11T02:02:57.394Z,966.45
2018-03-11T02:03:57.325Z,966.44
2018-03-11T02:04:57.234Z,966.45
2018-03-11T02:05:57.154Z,966.44
2018-03-11T02:06:57.075Z,966.43
2018-03-11T02:07:56.992Z,966.41
2018-03-11T02:08:56.920Z,966.42
2018-03-11T02:09:56.831Z,966.41
2018-03-11T02:10:56.749Z,966.39
2018-03-11T02:11:56.671Z,966.39
2018-03-11T02:12:56.589Z,966.39
2018-03-11T02:13:56.512Z,966.48
2018-03-11T02:14:56.428Z,966.45
2018-03-11T02:15:56.351Z,966.47
2018-03-11T02:16:56.268Z,966.52
2018-03-11T02:17:56.210Z,966.50
2018-03-11T02:18:56.107Z,966.48
2018-03-11T02:19:56.026Z,966.50
2018-03-11T02:20:55.945Z,966.51
2018-03-11T02:21:55.867Z,966.47
2018-03-11T02:22:55.782Z,966.44
2018-03-11T02:23:55.701Z,966.41
2018-03-11T02:24:55.623Z,966.36
2018-03-11T02:25:55.542Z,966.29
2018-03-11T02:26:55.461Z,966.28
2018-03-11T02:27:55.381Z,966.25
2018-03-11T02:28:55.298Z,966.27
2018-03-11T02:29:55.221Z,966.28
2018-03-11T02:30:55.149Z,966.36
2018-03-11T02:31:55.059Z,966.37
2018-03-11T02:32:54.982Z,966.32
2018-03-11T02:33:54.897Z,966.35
2018-03-11T02:34:54.824Z,966.23
2018-03-11T02:35:54.735Z,966.19
2018-03-11T02:36:54.665Z,966.15
2018-03-11T02:37:54.575Z,966.15
2018-03-11T02:38:54.497Z,966.15
2018-03-11T02:39:54.415Z,966.20
2018-03-11T02:40:54.333Z,966.17
2018-03-11T02:41:54.253Z,966.16
2018-03-11T02:42:54.171Z,966.12
2018-03-11T02:43:54.089Z,966.17
2018-03-11T02:44:54.012Z,966.16
2018-03-11T02:45:53.928Z,966.12
2018-03-11T02:46:53.857Z,966.06
2018-03-11T02:47:53.767Z,966.03
2018-03-11T02:48:53.686Z,966.03
2018-03-11T02:49:53.609Z,966.04
2018-03-11T02:50:53.533Z,966.04
2018-03-11T02:51:53.444Z,966.04
2018-03-11T02:52:53.363Z,966.05
2018-03-11T02:53:53.284Z,966.07
2018-03-11T02:54:53.201Z,966.03
2018-03-11T02:55:53.126Z,966.06
2018-03-11T02:56:53.039Z,966.07
2018-03-11T02:57:52.958Z,966.04
2018-03-11T02:58:52.878Z,966.01
2018-03-11T02:59:52.797Z,966.00
2018-03-11T03:00:52.714Z,965.98
2018-03-11T03:01:52.636Z,966.01
2018-03-11T03:02:52.554Z,965.99
2018-03-11T03:03:52.485Z,965.99
2018-03-11T03:04:52.392Z,965.91
2018-03-11T03:05:52.312Z,965.96
2018-03-11T03:06:52.232Z,965.98
2018-03-11T03:07:52.148Z,965.94
2018-03-11T03:08:52.080Z,965.94
2018-03-11T03:09:51.989Z,965.95
2018-03-11T03:10:51.907Z,965.91
2018-03-11T03:11:51.830Z,965.95
2018-03-11T03:12:51.744Z,965.94
2018-03-11T03:13:51.665Z,965.94
2018-03-11T03:14:51.583Z,965.93
2018-03-11T03:15:51.513Z,965.95
2018-03-11T03:16:51.422Z,965.94
2018-03-11T03:17:51.340Z,965.91
2018-03-11T03:18:51.261Z,965.89
2018-03-11T03:19:51.184Z,965.91
2018-03-11T03:20:51.101Z,965.95
2018-03-11T03:21:51.017Z,965.88
2018-03-11T03:22:50.937Z,965.89
2018-03-11T03:23:50.857Z,965.91
2018-03-11T03:24:50.785Z,965.88
2018-03-11T03:25:50.695Z,965.88
2018-03-11T03:26:50.612Z,965.82
2018-03-11T03:27:50.531Z,965.84
2018-03-11T03:28:50.448Z,965.81
2018-03-11T03:29:50.415Z,965.82
2018-03-11T03:30:50.331Z,965.83
2018-03-11T03:31:50.209Z,965.85
2018-03-11T03:32:50.127Z,965.86
2018-03-11T03:33:50.045Z,965.83
2018-03-11T03:34:49.970Z,965.80
2018-03-11T03:35:49.884Z,965.79
2018-03-11T03:36:49.804Z,965.77
2018-03-11T03:37:49.721Z,965.77
2018-03-11T03:38:49.641Z,965.78
2018-03-11T03:39:49.560Z,965.77
2018-03-11T03:40:49.480Z,965.73
2018-03-11T03:41:49.399Z,965.66
2018-03-11T03:42:49.318Z,965.63
2018-03-11T03:43:49.252Z,965.62
2018-03-11T03:44:49.154Z,965.55
2018-03-11T03:45:49.073Z,965.57
2018-03-11T03:46:48.995Z,965.51
2018-03-11T03:47:48.912Z,965.52
2018-03-11T03:48:48.831Z,965.47
2018-03-11T03:49:48.749Z,965.43
2018-03-11T03:50:48.678Z,965.43
2018-03-11T03:51:48.588Z,965.37
2018-03-11T03:52:48.511Z,965.37
2018-03-11T03:53:48.425Z,965.36
2018-03-11T03:54:48.343Z,965.38
2018-03-11T03:55:48.266Z,965.39
2018-03-11T03:56:48.181Z,965.36
2018-03-11T03:57:48.102Z,965.39
2018-03-11T03:58:48.020Z,965.38
2018-03-11T03:59:47.937Z,965.39
2018-03-11T04:00:47.856Z,965.38
2018-03-11T04:01:47.778Z,965.36
2018-03-11T04:02:47.700Z,965.38
2018-03-11T04:03:47.611Z,965.36
2018-03-11T04:04:47.532Z,965.38
2018-03-11T04:05:47.449Z,965.39
2018-03-11T04:06:47.376Z,965.36
2018-03-11T04:07:47.292Z,965.36
2018-03-11T04:08:47.206Z,965.39
2018-03-11T04:09:47.125Z,965.35
2018-03-11T04:10:47.075Z,965.38
2018-03-11T04:11:46.961Z,965.37
2018-03-11T04:12:46.882Z,965.37
2018-03-11T04:13:46.801Z,965.33
2018-03-11T04:14:46.720Z,965.35
2018-03-11T04:15:46.637Z,965.35
2018-03-11T04:16:46.557Z,965.36
2018-03-11T04:17:46.474Z,965.31
2018-03-11T04:18:46.394Z,965.31
2018-03-11T04:19:46.323Z,965.28
2018-03-11T04:20:46.243Z,965.28
2018-03-11T04:21:46.153Z,965.27
2018-03-11T04:22:46.069Z,965.28
2018-03-11T04:23:45.985Z,965.26
2018-03-11T04:24:45.904Z,965.27
2018-03-11T04:25:45.824Z,965.23
2018-03-11T04:26:45.743Z,965.21
2018-03-11T04:27:45.662Z,965.22
2018-03-11T04:28:45.579Z,965.18
2018-03-11T04:29:45.529Z,965.19
2018-03-11T04:30:45.419Z,965.16
2018-03-11T04:31:45.334Z,965.15
2018-03-11T04:32:45.255Z,965.12
2018-03-11T04:33:45.174Z,965.08
2018-03-11T04:34:45.091Z,965.11
2018-03-11T04:35:45.009Z,965.16
2018-03-11T04:36:44.929Z,965.14
2018-03-11T04:37:44.846Z,965.17
2018-03-11T04:38:44.764Z,965.22
2018-03-11T04:39:44.694Z,965.22
2018-03-11T04:40:44.602Z,965.21
2018-03-11T04:41:44.523Z,965.20
2018-03-11T04:42:44.440Z,965.21
2018-03-11T04:43:44.361Z,965.18
2018-03-11T04:44:44.276Z,965.19
2018-03-11T04:45:44.196Z,965.17
2018-03-11T04:46:44.116Z,965.20
2018-03-11T04:47:44.035Z,965.24
2018-03-11T04:48:43.953Z,965.24
2018-03-11T04:49:43.881Z,965.23
2018-03-11T04:50:43.791Z,965.22
2018-03-11T04:51:43.706Z,965.25
2018-03-11T04:52:43.625Z,965.27
2018-03-11T04:53:43.543Z,965.29
2018-03-11T04:54:43.461Z,965.25
2018-03-11T04:55:43.383Z,965.25
2018-03-11T04:56:43.300Z,965.27
2018-03-11T04:57:43.222Z,965.24
2018-03-11T04:58:43.135Z,965.27
2018-03-11T04:59:43.055Z,965.26
2018-03-11T05:00:42.973Z,965.21
2018-03-11T05:01:42.894Z,965.20
2018-03-11T05:02:42.819Z,965.15
2018-03-11T05:03:42.728Z,965.16
2018-03-11T05:04:42.648Z,965.12
2018-03-11T05:05:42.565Z,965.06
2018-03-11T05:06:42.484Z,965.05
2018-03-11T05:07:42.402Z,965.01
2018-03-11T05:08:42.321Z,965.03
2018-03-11T05:09:42.251Z,965.01
2018-03-11T05:10:42.161Z,964.97
2018-03-11T05:11:42.076Z,964.96
2018-03-11T05:12:41.995Z,964.94
2018-03-11T05:13:41.914Z,964.90
2018-03-11T05:14:41.832Z,964.91
2018-03-11T05:15:41.751Z,964.90
2018-03-11T05:16:41.670Z,964.90
2018-03-11T05:17:41.606Z,964.89
2018-03-11T05:18:41.507Z,964.90
2018-03-11T05:19:41.424Z,964.90
2018-03-11T05:20:41.343Z,964.90
2018-03-11T05:21:41.261Z,964.89
2018-03-11T05:22:41.180Z,964.91
2018-03-11T05:23:41.098Z,964.91
2018-03-11T05:24:41.017Z,964.94
2018-03-11T05:25:40.934Z,964.92
2018-03-11T05:26:40.853Z,964.90
2018-03-11T05:27:40.777Z,964.84
2018-03-11T05:28:40.691Z,964.83
2018-03-11T05:29:40.612Z,964.86
2018-03-11T05:30:40.528Z,964.87
2018-03-11T05:31:40.449Z,964.90
2018-03-11T05:32:40.453Z,964.88
2018-03-11T05:33:40.283Z,964.94
2018-03-11T05:34:40.201Z,964.92
2018-03-11T05:35:40.118Z,964.92
2018-03-11T05:36:40.037Z,964.92
2018-03-11T05:37:39.956Z,964.90
2018-03-11T05:38:39.876Z,964.86
2018-03-11T05:39:39.794Z,964.91
2018-03-11T05:40:39.712Z,964.92
2018-03-11T05:41:39.630Z,964.91
2018-03-11T05:42:39.555Z,964.94
2018-03-11T05:43:39.464Z,964.95
2018-03-11T05:44:39.384Z,964.94
2018-03-11T05:45:39.302Z,964.96
2018-03-11T05:46:39.233Z,965.01
2018-03-11T05:47:39.140Z,965.05
2018-03-11T05:48:39.057Z,965.08
2018-03-11T05:49:38.976Z,965.08
2018-03-11T05:50:38.893Z,965.14
2018-03-11T05:51:38.814Z,965.15
2018-03-11T05:52:38.731Z,965.17
2018-03-11T05:53:38.651Z,965.17
2018-03-11T05:54:38.566Z,965.20
2018-03-11T05:55:38.486Z,965.21
2018-03-11T05:56:38.404Z,965.24
2018-03-11T05:57:38.322Z,965.25
2018-03-11T05:58:38.240Z,965.29
2018-03-11T05:59:38.159Z,965.30
2018-03-11T06:00:38.084Z,965.33
2018-03-11T06:01:37.995Z,965.35
2018-03-11T06:02:37.934Z,965.33
2018-03-11T06:03:37.830Z,965.29
2018-03-11T06:04:37.750Z,965.25
2018-03-11T06:05:37.667Z,965.23
2018-03-11T06:06:37.588Z,965.22
2018-03-11T06:07:37.505Z,965.20
2018-03-11T06:08:37.422Z,965.19
2018-03-11T06:09:37.341Z,965.17
2018-03-11T06:10:37.314Z,965.12
2018-03-11T06:11:37.178Z,965.15
2018-03-11T06:12:37.097Z,965.17
2018-03-11T06:13:37.015Z,965.14
2018-03-11T06:14:36.936Z,965.10
2018-03-11T06:15:36.851Z,965.10
2018-03-11T06:16:36.770Z,965.05
2018-03-11T06:17:36.693Z,965.02
2018-03-11T06:18:36.615Z,964.99
2018-03-11T06:19:36.528Z,965.00
2018-03-11T06:20:36.442Z,965.01
2018-03-11T06:21:36.363Z,965.01
2018-03-11T06:22:36.290Z,965.03
2018-03-11T06:23:36.203Z,964.98
2018-03-11T06:24:36.118Z,964.95
2018-03-11T06:25:36.036Z,964.94
2018-03-11T06:26:35.955Z,964.92
2018-03-11T06:27:35.874Z,964.88
2018-03-11T06:28:35.789Z,964.88
2018-03-11T06:29:35.707Z,964.84
2018-03-11T06:30:35.643Z,964.83
2018-03-11T06:31:35.545Z,964.80
2018-03-11T06:32:35.463Z,964.74
2018-03-11T06:33:35.381Z,964.69
2018-03-11T06:34:35.301Z,964.64
2018-03-11T06:35:35.219Z,964.66
2018-03-11T06:36:35.136Z,964.64
2018-03-11T06:37:35.057Z,964.61
2018-03-11T06:38:34.980Z,964.61
2018-03-11T06:39:34.893Z,964.58
2018-03-11T06:40:34.813Z,964.58
2018-03-11T06:41:34.737Z,964.56
2018-03-11T06:42:34.951Z,964.52
2018-03-11T06:43:34.567Z,964.52
2018-03-11T06:44:34.482Z,964.48
2018-03-11T06:45:34.406Z,964.45
2018-03-11T06:46:34.322Z,964.44
2018-03-11T06:47:34.239Z,964.36
2018-03-11T06:48:34.158Z,964.32
2018-03-11T06:49:34.077Z,964.31
2018-03-11T06:50:33.994Z,964.29
2018-03-11T06:51:33.913Z,964.22
2018-03-11T06:52:33.833Z,964.22
2018-03-11T06:53:33.752Z,964.17
2018-03-11T06:54:33.688Z,964.13
2018-03-11T06:55:33.586Z,964.14
2018-03-11T06:56:33.508Z,964.11
2018-03-11T06:57:33.426Z,964.07
2018-03-11T06:58:33.346Z,964.05
2018-03-11T06:59:33.262Z,964.00
2018-03-11T07:00:33.184Z,963.99
2018-03-11T07:01:33.101Z,963.96
2018-03-11T07:02:33.018Z,963.94
2018-03-11T07:03:32.944Z,963.96
2018-03-11T07:04:32.856Z,963.96
2018-03-11T07:05:32.774Z,963.95
2018-03-11T07:06:32.692Z,963.96
2018-03-11T07:07:32.611Z,963.96
2018-03-11T07:08:32.534Z,964.01
2018-03-11T07:09:32.467Z,964.01
2018-03-11T07:10:32.368Z,964.03
2018-03-11T07:11:32.304Z,964.01
2018-03-11T07:12:32.209Z,964.02
2018-03-11T07:13:32.125Z,964.03
2018-03-11T07:14:32.045Z,964.07
2018-03-11T07:15:31.966Z,964.09
2018-03-11T07:16:31.883Z,964.11
2018-03-11T07:17:31.799Z,964.11
2018-03-11T07:18:31.718Z,964.14
2018-03-11T07:19:31.638Z,964.07
2018-03-11T07:20:31.558Z,964.07
2018-03-11T07:21:31.477Z,964.02
2018-03-11T07:22:31.404Z,963.92
2018-03-11T07:23:31.316Z,963.84
2018-03-11T07:24:31.234Z,963.80
2018-03-11T07:25:31.152Z,963.80
2018-03-11T07:26:31.076Z,963.78
2018-03-11T07:27:30.991Z,963.85
2018-03-11T07:28:30.908Z,963.84
2018-03-11T07:29:30.829Z,963.89
2018-03-11T07:30:30.749Z,963.95
2018-03-11T07:31:30.665Z,963.97
2018-03-11T07:32:30.585Z,963.99
2018-03-11T07:33:30.511Z,963.96
2018-03-11T07:34:30.426Z,963.96
2018-03-11T07:35:30.343Z,964.02
2018-03-11T07:36:30.262Z,964.00
2018-03-11T07:37:30.183Z,964.02
2018-03-11T07:38:30.121Z,963.90
2018-03-11T07:39:30.022Z,963.89
2018-03-11T07:40:29.942Z,963.80
2018-03-11T07:41:29.863Z,963.74
2018-03-11T07:42:29.782Z,963.64
2018-03-11T07:43:29.699Z,963.57
2018-03-11T07:44:29.620Z,963.52
2018-03-11T07:45:29.541Z,963.46
2018-03-11T07:46:29.458Z,963.42
2018-03-11T07:47:29.378Z,963.42
2018-03-11T07:48:29.301Z,963.44
2018-03-11T07:49:29.218Z,963.41
2018-03-11T07:50:29.140Z,963.42
2018-03-11T07:51:29.056Z,963.34
2018-03-11T07:52:28.988Z,963.25
2018-03-11T07:53:28.898Z,963.18
2018-03-11T07:54:28.837Z,963.14
2018-03-11T07:55:28.737Z,963.10
2018-03-11T07:56:28.655Z,963.11
2018-03-11T07:57:28.580Z,963.11
2018-03-11T07:58:28.501Z,963.13
2018-03-11T07:59:28.418Z,963.21
2018-03-11T08:00:28.337Z,963.34
2018-03-11T08:01:28.258Z,963.41
2018-03-11T08:02:28.181Z,963.54
2018-03-11T08:03:28.098Z,963.57
2018-03-11T08:04:28.021Z,963.59
2018-03-11T08:05:27.939Z,963.65
2018-03-11T08:06:27.861Z,963.66
2018-03-11T08:07:27.780Z,963.74
2018-03-11T08:08:27.698Z,963.75
2018-03-11T08:09:27.621Z,963.81
2018-03-11T08:10:27.543Z,963.87
2018-03-11T08:11:27.478Z,963.91
2018-03-11T08:12:27.383Z,964.05
2018-03-11T08:13:27.303Z,964.12
2018-03-11T08:14:27.284Z,964.19
2018-03-11T08:15:27.143Z,964.18
2018-03-11T08:16:27.061Z,964.05
2018-03-11T08:17:26.984Z,963.94
2018-03-11T08:18:26.903Z,963.84
2018-03-11T08:19:26.841Z,963.83
2018-03-11T08:20:26.744Z,963.90
2018-03-11T08:21:26.667Z,963.97
2018-03-11T08:22:26.588Z,964.05
2018-03-11T08:23:26.506Z,964.11
2018-03-11T08:24:26.451Z,964.12
2018-03-11T08:25:26.347Z,964.18
2018-03-11T08:26:26.269Z,964.17
2018-03-11T08:27:26.190Z,964.18
2018-03-11T08:28:26.112Z,964.14
2018-03-11T08:29:26.032Z,964.20
2018-03-11T08:30:25.952Z,964.20
2018-03-11T08:31:25.876Z,964.29
2018-03-11T08:32:25.795Z,964.36
2018-03-11T08:33:25.715Z,964.48
2018-03-11T08:34:25.639Z,964.56
2018-03-11T08:35:25.558Z,964.64
2018-03-11T08:36:25.479Z,964.65
2018-03-11T08:37:25.407Z,964.62
2018-03-11T08:38:25.321Z,964.61
2018-03-11T08:39:25.239Z,964.57
2018-03-11T08:40:25.163Z,964.49
2018-03-11T08:41:25.085Z,964.46
2018-03-11T08:42:25.005Z,964.44
2018-03-11T08:43:24.939Z,964.46
2018-03-11T08:44:24.848Z,964.47
2018-03-11T08:45:24.770Z,964.48
2018-03-11T08:46:24.691Z,964.48
2018-03-11T08:47:24.609Z,964.44
2018-03-11T08:48:24.598Z,964.43
2018-03-11T08:49:24.455Z,964.38
2018-03-11T08:50:24.379Z,964.31
2018-03-11T08:51:24.294Z,964.30
2018-03-11T08:52:24.217Z,964.23
2018-03-11T08:53:24.141Z,964.22
2018-03-11T08:54:24.062Z,964.22
2018-03-11T08:55:23.984Z,964.29
2018-03-11T08:56:23.912Z,964.28
2018-03-11T08:57:23.824Z,964.31
2018-03-11T08:58:23.751Z,964.27
2018-03-11T08:59:23.689Z,964.22
2018-03-11T09:00:23.589Z,964.12
2018-03-11T09:01:23.512Z,964.10
2018-03-11T09:02:23.431Z,964.00
2018-03-11T09:03:23.352Z,963.99
2018-03-11T09:04:23.274Z,964.04
2018-03-11T09:05:23.197Z,964.10
2018-03-11T09:06:23.131Z,964.11
2018-03-11T09:07:23.040Z,964.19
2018-03-11T09:08:22.961Z,964.17
2018-03-11T09:09:22.881Z,964.11
2018-03-11T09:10:22.808Z,964.04
2018-03-11T09:11:22.724Z,963.95
2018-03-11T09:12:22.665Z,963.92
2018-03-11T09:13:22.573Z,963.94
2018-03-11T09:14:22.512Z,963.90
2018-03-11T09:15:22.412Z,963.87
2018-03-11T09:16:22.335Z,963.87
2018-03-11T09:17:22.257Z,963.86
2018-03-11T09:18:22.178Z,963.84
2018-03-11T09:19:22.099Z,963.78
2018-03-11T09:20:22.023Z,963.79
2018-03-11T09:21:21.945Z,963.78
2018-03-11T09:22:21.868Z,963.79
2018-03-11T09:23:21.789Z,963.80
2018-03-11T09:24:21.710Z,963.77
2018-03-11T09:25:21.634Z,963.71
2018-03-11T09:26:21.557Z,963.69
2018-03-11T09:27:21.475Z,963.62
2018-03-11T09:28:21.399Z,963.57
2018-03-11T09:29:21.321Z,963.58
2018-03-11T09:30:21.244Z,963.57
2018-03-11T09:31:21.164Z,963.55
2018-03-11T09:32:21.087Z,963.54
2018-03-11T09:33:21.014Z,963.55
2018-03-11T09:34:20.935Z,963.53
2018-03-11T09:35:20.854Z,963.51
2018-03-11T09:36:20.777Z,963.45
2018-03-11T09:37:20.699Z,963.42
2018-03-11T09:38:20.620Z,963.40
2018-03-11T09:39:20.544Z,963.40
2018-03-11T09:40:20.469Z,963.38
2018-03-11T09:41:20.399Z,963.42
2018-03-11T09:42:20.329Z,963.41
2018-03-11T09:43:20.238Z,963.43
2018-03-11T09:44:20.165Z,963.45
2018-03-11T09:45:20.080Z,963.41
2018-03-11T09:46:20.002Z,963.46
2018-03-11T09:47:19.926Z,963.43
2018-03-11T09:48:19.847Z,963.41
2018-03-11T09:49:19.769Z,963.42
2018-03-11T09:50:19.695Z,963.39
2018-03-11T09:51:19.616Z,963.31
2018-03-11T09:52:19.539Z,963.28
2018-03-11T09:53:19.462Z,963.25
2018-03-11T09:54:19.385Z,963.20
2018-03-11T09:55:19.306Z,963.20
2018-03-11T09:56:19.230Z,963.16
2018-03-11T09:57:19.160Z,963.11
2018-03-11T09:58:19.078Z,963.17
2018-03-11T09:59:19.012Z,963.14
2018-03-11T10:00:18.921Z,963.15
2018-03-11T10:01:18.845Z,963.14
2018-03-11T10:02:18.767Z,963.15
2018-03-11T10:03:18.691Z,963.10
2018-03-11T10:04:18.614Z,963.07
2018-03-11T10:05:18.585Z,963.11
2018-03-11T10:06:18.470Z,963.13
2018-03-11T10:07:18.381Z,963.12
2018-03-11T10:08:18.308Z,963.06
2018-03-11T10:09:18.231Z,962.99
2018-03-11T10:10:18.153Z,963.00
2018-03-11T10:11:18.082Z,963.02
2018-03-11T10:12:18.001Z,963.05
2018-03-11T10:13:17.925Z,963.04
2018-03-11T10:14:17.848Z,963.02
2018-03-11T10:15:17.772Z,962.99
2018-03-11T10:16:17.703Z,962.92
2018-03-11T10:17:17.621Z,962.92
2018-03-11T10:18:17.543Z,962.91
2018-03-11T10:19:17.470Z,962.87
2018-03-11T10:20:17.390Z,962.85
2018-03-11T10:21:17.313Z,962.80
2018-03-11T10:22:17.239Z,962.76
2018-03-11T10:23:17.169Z,962.75
2018-03-11T10:24:17.085Z,962.69
2018-03-11T10:25:17.011Z,962.67
2018-03-11T10:26:16.933Z,962.68
2018-03-11T10:27:16.856Z,962.71
2018-03-11T10:28:16.781Z,962.75
2018-03-11T10:29:16.704Z,962.74
2018-03-11T10:30:16.631Z,962.77
2018-03-11T10:31:16.553Z,962.80
2018-03-11T10:32:16.481Z,962.78
2018-03-11T10:33:16.411Z,962.81
2018-03-11T10:34:16.322Z,962.82
2018-03-11T10:35:16.251Z,962.74
2018-03-11T10:36:16.176Z,962.75
2018-03-11T10:37:16.095Z,962.74
2018-03-11T10:38:16.022Z,962.74
2018-03-11T10:39:15.942Z,962.75
2018-03-11T10:40:15.869Z,962.74
2018-03-11T10:41:15.790Z,962.73
2018-03-11T10:42:15.715Z,962.73
2018-03-11T10:43:15.639Z,962.68
2018-03-11T10:44:15.561Z,962.72
2018-03-11T10:45:15.490Z,962.64
2018-03-11T10:46:15.409Z,962.57
2018-03-11T10:47:15.335Z,962.60
2018-03-11T10:48:15.260Z,962.57
2018-03-11T10:49:15.308Z,962.52
2018-03-11T10:50:15.107Z,962.47
2018-03-11T10:51:15.031Z,962.46
2018-03-11T10:52:14.955Z,962.39
2018-03-11T10:53:14.879Z,962.37
2018-03-11T10:54:14.803Z,962.33
2018-03-11T10:55:14.727Z,962.34
2018-03-11T10:56:14.665Z,962.32
2018-03-11T10:57:14.576Z,962.27
2018-03-11T10:58:14.499Z,962.27
2018-03-11T10:59:14.422Z,962.28
2018-03-11T11:00:14.348Z,962.28
2018-03-11T11:01:14.272Z,962.24
2018-03-11T11:02:14.240Z,962.26
2018-03-11T11:03:14.118Z,962.16
2018-03-11T11:04:14.042Z,962.21
2018-03-11T11:05:13.967Z,962.19
2018-03-11T11:06:13.889Z,962.18
2018-03-11T11:07:13.814Z,962.18
2018-03-11T11:08:13.739Z,962.12
2018-03-11T11:09:13.666Z,962.09
2018-03-11T11:10:13.588Z,962.04
2018-03-11T11:11:13.511Z,961.99
2018-03-11T11:12:13.434Z,962.02
2018-03-11T11:13:13.359Z,962.03
2018-03-11T11:14:13.285Z,962.03
2018-03-11T11:15:13.214Z,962.03
2018-03-11T11:16:13.133Z,961.99
2018-03-11T11:17:13.055Z,961.99
2018-03-11T11:18:12.995Z,961.98
2018-03-11T11:19:12.930Z,961.95
2018-03-11T11:20:12.849Z,961.98
2018-03-11T11:21:12.759Z,961.94
2018-03-11T11:22:12.678Z,961.88
2018-03-11T11:23:12.603Z,961.83
2018-03-11T11:24:12.525Z,961.78
2018-03-11T11:25:12.452Z,961.82
2018-03-11T11:26:12.374Z,961.87
2018-03-11T11:27:12.297Z,961.82
2018-03-11T11:28:12.223Z,961.83
2018-03-11T11:29:12.149Z,961.77
2018-03-11T11:30:12.072Z,961.75
2018-03-11T11:31:12.033Z,961.74
2018-03-11T11:32:11.919Z,961.73
2018-03-11T11:33:11.847Z,961.72
2018-03-11T11:34:11.771Z,961.65
2018-03-11T11:35:11.696Z,961.71
2018-03-11T11:36:11.623Z,961.64
2018-03-11T11:37:11.547Z,961.66
2018-03-11T11:38:11.520Z,961.68
2018-03-11T11:39:11.396Z,961.64
2018-03-11T11:40:11.321Z,961.62
2018-03-11T11:41:11.248Z,961.61
2018-03-11T11:42:11.173Z,961.58
2018-03-11T11:43:11.101Z,961.57
2018-03-11T11:44:11.024Z,961.52
2018-03-11T11:45:10.948Z,961.45
2018-03-11T11:46:10.875Z,961.42
2018-03-11T11:47:10.798Z,961.42
2018-03-11T11:48:10.725Z,961.43
2018-03-11T11:49:10.651Z,961.38
2018-03-11T11:50:10.576Z,961.37
2018-03-11T11:51:10.517Z,961.36
2018-03-11T11:52:10.428Z,961.36
2018-03-11T11:53:10.356Z,961.31
2018-03-11T11:54:10.276Z,961.28
2018-03-11T11:55:10.225Z,961.25
2018-03-11T11:56:10.130Z,961.18
2018-03-11T11:57:10.050Z,961.11
2018-03-11T11:58:10.029Z,961.08
2018-03-11T11:59:09.900Z,960.99
2018-03-11T12:00:09.824Z,960.98
2018-03-11T12:01:09.761Z,961.00
2018-03-11T12:02:09.690Z,960.96
2018-03-11T12:03:09.597Z,960.89
2018-03-11T12:04:09.521Z,960.94
2018-03-11T12:05:09.448Z,960.91
2018-03-11T12:06:09.370Z,960.88
2018-03-11T12:07:09.397Z,960.93
2018-03-11T12:08:09.220Z,960.93
2018-03-11T12:09:09.143Z,960.93
2018-03-11T12:10:09.068Z,960.89
2018-03-11T12:11:09.026Z,960.87
2018-03-11T12:12:08.967Z,960.85
2018-03-11T12:13:08.839Z,960.85
2018-03-11T12:14:08.767Z,960.82
2018-03-11T12:15:08.690Z,960.84
2018-03-11T12:16:08.621Z,960.82
2018-03-11T12:17:08.538Z,960.89
2018-03-11T12:18:08.465Z,960.85
2018-03-11T12:19:08.389Z,960.79
2018-03-11T12:20:08.312Z,960.78
2018-03-11T12:21:08.237Z,960.76
2018-03-11T12:22:08.160Z,960.75
2018-03-11T12:23:08.098Z,960.75
2018-03-11T12:24:08.011Z,960.85
2018-03-11T12:25:07.940Z,960.88
2018-03-11T12:26:07.859Z,960.89
2018-03-11T12:27:07.785Z,960.89